sensor_id;sensor_type;location;lat;lon;timestamp;P1;durP1;ratioP1;P2;durP2;ratioP2
10430;SDS011;5262;59.958;17.726;2023-07-24T00:00:29;2.10;;;1.70;;
10430;SDS011;5262;59.958;17.726;2023-07-24T00:02:55;1.93;;;1.73;;
10430;SDS011;5262;59.958;17.726;2023-07-24T00:05:21;2.97;;;1.97;;
10430;SDS011;5262;59.958;17.726;2023-07-24T00:07:47;2.13;;;1.67;;
10430;SDS011;5262;59.958;17.726;2023-07-24T00:10:12;5.57;;;1.70;;
10430;SDS011;5262;59.958;17.726;2023-07-24T00:12:38;2.10;;;1.40;;
10430;SDS011;5262;59.958;17.726;2023-07-24T00:15:04;3.27;;;1.63;;
10430;SDS011;5262;59.958;17.726;2023-07-24T00:17:30;3.37;;;1.67;;
10430;SDS011;5262;59.958;17.726;2023-07-24T00:19:55;2.20;;;1.70;;
10430;SDS011;5262;59.958;17.726;2023-07-24T00:22:21;5.83;;;1.80;;
10430;SDS011;5262;59.958;17.726;2023-07-24T00:24:47;3.00;;;1.83;;
10430;SDS011;5262;59.958;17.726;2023-07-24T00:27:12;2.07;;;1.60;;
10430;SDS011;5262;59.958;17.726;2023-07-24T00:29:39;3.90;;;1.67;;
10430;SDS011;5262;59.958;17.726;2023-07-24T00:32:05;2.70;;;1.60;;
10430;SDS011;5262;59.958;17.726;2023-07-24T00:34:30;2.23;;;1.70;;
10430;SDS011;5262;59.958;17.726;2023-07-24T00:36:56;1.80;;;1.60;;
10430;SDS011;5262;59.958;17.726;2023-07-24T00:39:22;3.60;;;1.97;;
10430;SDS011;5262;59.958;17.726;2023-07-24T00:41:47;2.43;;;1.90;;
10430;SDS011;5262;59.958;17.726;2023-07-24T00:44:13;3.67;;;1.67;;
10430;SDS011;5262;59.958;17.726;2023-07-24T00:46:39;2.57;;;2.10;;
10430;SDS011;5262;59.958;17.726;2023-07-24T00:49:04;3.23;;;2.03;;
10430;SDS011;5262;59.958;17.726;2023-07-24T00:51:31;3.67;;;2.37;;
10430;SDS011;5262;59.958;17.726;2023-07-24T00:53:58;2.67;;;2.07;;
10430;SDS011;5262;59.958;17.726;2023-07-24T00:56:26;2.83;;;2.17;;
10430;SDS011;5262;59.958;17.726;2023-07-24T00:58:54;3.00;;;1.73;;
10430;SDS011;5262;59.958;17.726;2023-07-24T01:01:23;4.87;;;2.13;;
10430;SDS011;5262;59.958;17.726;2023-07-24T01:03:49;5.87;;;3.07;;
10430;SDS011;5262;59.958;17.726;2023-07-24T01:06:16;2.77;;;2.30;;
10430;SDS011;5262;59.958;17.726;2023-07-24T01:08:41;3.90;;;2.13;;
10430;SDS011;5262;59.958;17.726;2023-07-24T01:11:14;2.20;;;2.00;;
10430;SDS011;5262;59.958;17.726;2023-07-24T01:13:44;4.70;;;2.20;;
10430;SDS011;5262;59.958;17.726;2023-07-24T01:16:20;5.00;;;2.20;;
10430;SDS011;5262;59.958;17.726;2023-07-24T01:18:47;3.40;;;2.30;;
10430;SDS011;5262;59.958;17.726;2023-07-24T01:21:16;2.57;;;1.90;;
10430;SDS011;5262;59.958;17.726;2023-07-24T01:24:03;2.20;;;1.90;;
10430;SDS011;5262;59.958;17.726;2023-07-24T01:26:44;2.10;;;1.90;;
10430;SDS011;5262;59.958;17.726;2023-07-24T01:29:10;3.77;;;2.37;;
10430;SDS011;5262;59.958;17.726;2023-07-24T01:31:35;4.60;;;2.20;;
10430;SDS011;5262;59.958;17.726;2023-07-24T01:34:01;3.07;;;1.93;;
10430;SDS011;5262;59.958;17.726;2023-07-24T01:36:27;2.87;;;2.10;;
10430;SDS011;5262;59.958;17.726;2023-07-24T01:38:52;3.00;;;1.70;;
10430;SDS011;5262;59.958;17.726;2023-07-24T01:41:18;3.67;;;1.90;;
10430;SDS011;5262;59.958;17.726;2023-07-24T01:43:44;3.87;;;2.07;;
10430;SDS011;5262;59.958;17.726;2023-07-24T01:46:10;2.37;;;1.73;;
10430;SDS011;5262;59.958;17.726;2023-07-24T01:48:35;2.63;;;1.97;;
10430;SDS011;5262;59.958;17.726;2023-07-24T01:51:01;2.60;;;2.17;;
10430;SDS011;5262;59.958;17.726;2023-07-24T01:53:27;3.17;;;2.00;;
10430;SDS011;5262;59.958;17.726;2023-07-24T01:55:52;2.13;;;1.87;;
10430;SDS011;5262;59.958;17.726;2023-07-24T01:58:18;4.27;;;1.90;;
10430;SDS011;5262;59.958;17.726;2023-07-24T02:00:43;3.17;;;2.07;;
10430;SDS011;5262;59.958;17.726;2023-07-24T02:03:09;4.43;;;2.23;;
10430;SDS011;5262;59.958;17.726;2023-07-24T02:05:34;2.50;;;1.80;;
10430;SDS011;5262;59.958;17.726;2023-07-24T02:08:00;2.07;;;1.87;;
10430;SDS011;5262;59.958;17.726;2023-07-24T02:10:26;2.80;;;1.80;;
10430;SDS011;5262;59.958;17.726;2023-07-24T02:12:51;4.40;;;2.17;;
10430;SDS011;5262;59.958;17.726;2023-07-24T02:15:17;4.33;;;1.80;;
10430;SDS011;5262;59.958;17.726;2023-07-24T02:17:43;4.03;;;2.00;;
10430;SDS011;5262;59.958;17.726;2023-07-24T02:20:08;2.20;;;1.90;;
10430;SDS011;5262;59.958;17.726;2023-07-24T02:22:34;3.20;;;1.87;;
10430;SDS011;5262;59.958;17.726;2023-07-24T02:25:00;2.73;;;1.63;;
10430;SDS011;5262;59.958;17.726;2023-07-24T02:27:27;2.37;;;1.87;;
10430;SDS011;5262;59.958;17.726;2023-07-24T02:29:53;4.10;;;1.87;;
10430;SDS011;5262;59.958;17.726;2023-07-24T02:32:20;3.33;;;1.60;;
10430;SDS011;5262;59.958;17.726;2023-07-24T02:34:48;5.57;;;1.97;;
10430;SDS011;5262;59.958;17.726;2023-07-24T02:37:14;2.83;;;1.70;;
10430;SDS011;5262;59.958;17.726;2023-07-24T02:39:40;4.33;;;2.07;;
10430;SDS011;5262;59.958;17.726;2023-07-24T02:42:05;2.60;;;1.50;;
10430;SDS011;5262;59.958;17.726;2023-07-24T02:44:32;2.63;;;1.87;;
10430;SDS011;5262;59.958;17.726;2023-07-24T02:47:01;2.43;;;1.67;;
10430;SDS011;5262;59.958;17.726;2023-07-24T02:49:27;3.37;;;1.70;;
10430;SDS011;5262;59.958;17.726;2023-07-24T02:51:53;1.83;;;1.43;;
10430;SDS011;5262;59.958;17.726;2023-07-24T02:54:18;3.43;;;1.80;;
10430;SDS011;5262;59.958;17.726;2023-07-24T02:56:44;2.33;;;1.60;;
10430;SDS011;5262;59.958;17.726;2023-07-24T02:59:10;4.57;;;1.80;;
10430;SDS011;5262;59.958;17.726;2023-07-24T03:01:35;2.03;;;1.70;;
10430;SDS011;5262;59.958;17.726;2023-07-24T03:04:02;4.10;;;1.73;;
10430;SDS011;5262;59.958;17.726;2023-07-24T03:06:28;3.13;;;2.00;;
10430;SDS011;5262;59.958;17.726;2023-07-24T03:08:53;2.27;;;1.90;;
10430;SDS011;5262;59.958;17.726;2023-07-24T03:11:19;2.60;;;1.97;;
10430;SDS011;5262;59.958;17.726;2023-07-24T03:13:44;2.93;;;1.90;;
10430;SDS011;5262;59.958;17.726;2023-07-24T03:16:10;1.80;;;1.70;;
10430;SDS011;5262;59.958;17.726;2023-07-24T03:18:36;2.40;;;1.80;;
10430;SDS011;5262;59.958;17.726;2023-07-24T03:21:02;3.10;;;1.90;;
10430;SDS011;5262;59.958;17.726;2023-07-24T03:23:28;2.60;;;1.77;;
10430;SDS011;5262;59.958;17.726;2023-07-24T03:25:54;3.17;;;1.73;;
10430;SDS011;5262;59.958;17.726;2023-07-24T03:28:20;4.50;;;1.80;;
10430;SDS011;5262;59.958;17.726;2023-07-24T03:30:45;2.30;;;1.70;;
10430;SDS011;5262;59.958;17.726;2023-07-24T03:33:11;5.23;;;1.80;;
10430;SDS011;5262;59.958;17.726;2023-07-24T03:35:37;3.60;;;1.60;;
10430;SDS011;5262;59.958;17.726;2023-07-24T03:38:04;3.20;;;1.80;;
10430;SDS011;5262;59.958;17.726;2023-07-24T03:40:30;1.77;;;1.60;;
10430;SDS011;5262;59.958;17.726;2023-07-24T03:42:55;3.67;;;1.80;;
10430;SDS011;5262;59.958;17.726;2023-07-24T03:45:21;1.60;;;1.50;;
10430;SDS011;5262;59.958;17.726;2023-07-24T03:47:47;2.03;;;1.83;;
10430;SDS011;5262;59.958;17.726;2023-07-24T03:50:12;3.33;;;1.80;;
10430;SDS011;5262;59.958;17.726;2023-07-24T03:52:38;3.83;;;1.93;;
10430;SDS011;5262;59.958;17.726;2023-07-24T03:55:04;3.43;;;1.53;;
10430;SDS011;5262;59.958;17.726;2023-07-24T03:57:30;3.53;;;1.80;;
10430;SDS011;5262;59.958;17.726;2023-07-24T03:59:55;2.67;;;2.00;;
10430;SDS011;5262;59.958;17.726;2023-07-24T04:02:21;3.57;;;1.60;;
10430;SDS011;5262;59.958;17.726;2023-07-24T04:04:48;2.00;;;1.60;;
10430;SDS011;5262;59.958;17.726;2023-07-24T04:07:14;2.70;;;1.97;;
10430;SDS011;5262;59.958;17.726;2023-07-24T04:09:39;2.83;;;1.77;;
10430;SDS011;5262;59.958;17.726;2023-07-24T04:12:05;2.00;;;1.80;;
10430;SDS011;5262;59.958;17.726;2023-07-24T04:14:31;2.80;;;1.90;;
10430;SDS011;5262;59.958;17.726;2023-07-24T04:16:56;3.00;;;1.60;;
10430;SDS011;5262;59.958;17.726;2023-07-24T04:19:22;1.93;;;1.53;;
10430;SDS011;5262;59.958;17.726;2023-07-24T04:21:47;2.50;;;1.90;;
10430;SDS011;5262;59.958;17.726;2023-07-24T04:24:13;2.20;;;1.90;;
10430;SDS011;5262;59.958;17.726;2023-07-24T04:26:39;3.33;;;1.93;;
10430;SDS011;5262;59.958;17.726;2023-07-24T04:29:05;6.03;;;1.80;;
10430;SDS011;5262;59.958;17.726;2023-07-24T04:31:31;2.60;;;2.03;;
10430;SDS011;5262;59.958;17.726;2023-07-24T04:33:56;2.23;;;2.03;;
10430;SDS011;5262;59.958;17.726;2023-07-24T04:36:22;2.33;;;2.13;;
10430;SDS011;5262;59.958;17.726;2023-07-24T04:38:48;3.30;;;2.10;;
10430;SDS011;5262;59.958;17.726;2023-07-24T04:41:13;2.60;;;2.40;;
10430;SDS011;5262;59.958;17.726;2023-07-24T04:43:39;2.30;;;2.10;;
10430;SDS011;5262;59.958;17.726;2023-07-24T04:46:04;3.10;;;2.17;;
10430;SDS011;5262;59.958;17.726;2023-07-24T04:48:30;4.60;;;2.80;;
10430;SDS011;5262;59.958;17.726;2023-07-24T04:50:56;3.50;;;3.20;;
10430;SDS011;5262;59.958;17.726;2023-07-24T04:53:22;7.70;;;4.20;;
10430;SDS011;5262;59.958;17.726;2023-07-24T04:55:48;4.57;;;3.37;;
10430;SDS011;5262;59.958;17.726;2023-07-24T04:58:14;3.47;;;2.87;;
10430;SDS011;5262;59.958;17.726;2023-07-24T05:00:39;5.30;;;3.00;;
10430;SDS011;5262;59.958;17.726;2023-07-24T05:03:05;5.53;;;3.40;;
10430;SDS011;5262;59.958;17.726;2023-07-24T05:05:33;5.77;;;3.33;;
10430;SDS011;5262;59.958;17.726;2023-07-24T05:07:58;4.80;;;3.53;;
10430;SDS011;5262;59.958;17.726;2023-07-24T05:10:24;3.97;;;3.60;;
10430;SDS011;5262;59.958;17.726;2023-07-24T05:12:50;9.00;;;4.20;;
10430;SDS011;5262;59.958;17.726;2023-07-24T05:15:15;5.27;;;3.73;;
10430;SDS011;5262;59.958;17.726;2023-07-24T05:17:42;6.10;;;3.83;;
10430;SDS011;5262;59.958;17.726;2023-07-24T05:20:08;4.33;;;3.40;;
10430;SDS011;5262;59.958;17.726;2023-07-24T05:22:35;4.70;;;3.30;;
10430;SDS011;5262;59.958;17.726;2023-07-24T05:25:00;5.37;;;3.10;;
10430;SDS011;5262;59.958;17.726;2023-07-24T05:27:26;6.97;;;2.83;;
10430;SDS011;5262;59.958;17.726;2023-07-24T05:29:51;4.27;;;2.93;;
10430;SDS011;5262;59.958;17.726;2023-07-24T05:32:17;3.77;;;2.70;;
10430;SDS011;5262;59.958;17.726;2023-07-24T05:34:43;3.07;;;2.63;;
10430;SDS011;5262;59.958;17.726;2023-07-24T05:37:09;6.87;;;2.60;;
10430;SDS011;5262;59.958;17.726;2023-07-24T05:39:34;4.30;;;2.87;;
10430;SDS011;5262;59.958;17.726;2023-07-24T05:42:00;3.60;;;2.70;;
10430;SDS011;5262;59.958;17.726;2023-07-24T05:44:26;3.43;;;2.43;;
10430;SDS011;5262;59.958;17.726;2023-07-24T05:46:51;4.50;;;2.50;;
10430;SDS011;5262;59.958;17.726;2023-07-24T05:49:17;2.13;;;1.93;;
10430;SDS011;5262;59.958;17.726;2023-07-24T05:51:43;3.37;;;2.20;;
10430;SDS011;5262;59.958;17.726;2023-07-24T05:54:08;3.07;;;2.00;;
10430;SDS011;5262;59.958;17.726;2023-07-24T05:56:34;3.73;;;2.00;;
10430;SDS011;5262;59.958;17.726;2023-07-24T05:58:59;5.67;;;2.50;;
10430;SDS011;5262;59.958;17.726;2023-07-24T06:01:25;4.03;;;2.10;;
10430;SDS011;5262;59.958;17.726;2023-07-24T06:03:51;5.13;;;2.70;;
10430;SDS011;5262;59.958;17.726;2023-07-24T06:06:16;3.77;;;2.20;;
10430;SDS011;5262;59.958;17.726;2023-07-24T06:08:42;3.73;;;1.90;;
10430;SDS011;5262;59.958;17.726;2023-07-24T06:11:07;4.33;;;2.00;;
10430;SDS011;5262;59.958;17.726;2023-07-24T06:13:33;6.60;;;2.20;;
10430;SDS011;5262;59.958;17.726;2023-07-24T06:15:59;5.63;;;1.70;;
10430;SDS011;5262;59.958;17.726;2023-07-24T06:18:24;6.77;;;2.13;;
10430;SDS011;5262;59.958;17.726;2023-07-24T06:20:53;9.37;;;2.33;;
10430;SDS011;5262;59.958;17.726;2023-07-24T06:23:19;4.17;;;1.77;;
10430;SDS011;5262;59.958;17.726;2023-07-24T06:25:45;6.23;;;1.60;;
10430;SDS011;5262;59.958;17.726;2023-07-24T06:28:10;1.80;;;1.60;;
10430;SDS011;5262;59.958;17.726;2023-07-24T06:30:38;3.30;;;1.70;;
10430;SDS011;5262;59.958;17.726;2023-07-24T06:33:04;1.77;;;1.43;;
10430;SDS011;5262;59.958;17.726;2023-07-24T06:35:29;3.30;;;1.60;;
10430;SDS011;5262;59.958;17.726;2023-07-24T06:37:55;2.13;;;1.60;;
10430;SDS011;5262;59.958;17.726;2023-07-24T06:40:21;2.57;;;1.50;;
10430;SDS011;5262;59.958;17.726;2023-07-24T06:42:47;3.13;;;1.60;;
10430;SDS011;5262;59.958;17.726;2023-07-24T06:45:12;1.27;;;1.17;;
10430;SDS011;5262;59.958;17.726;2023-07-24T06:47:38;1.40;;;1.30;;
10430;SDS011;5262;59.958;17.726;2023-07-24T06:50:04;1.90;;;1.30;;
10430;SDS011;5262;59.958;17.726;2023-07-24T06:52:31;2.40;;;1.45;;
10430;SDS011;5262;59.958;17.726;2023-07-24T06:54:57;1.55;;;1.08;;
10430;SDS011;5262;59.958;17.726;2023-07-24T06:57:23;1.83;;;1.20;;
10430;SDS011;5262;59.958;17.726;2023-07-24T06:59:49;1.40;;;1.20;;
10430;SDS011;5262;59.958;17.726;2023-07-24T07:02:15;1.33;;;1.10;;
10430;SDS011;5262;59.958;17.726;2023-07-24T07:04:40;1.55;;;0.95;;
10430;SDS011;5262;59.958;17.726;2023-07-24T07:07:06;0.90;;;0.90;;
10430;SDS011;5262;59.958;17.726;2023-07-24T07:09:32;0.90;;;0.90;;
10430;SDS011;5262;59.958;17.726;2023-07-24T07:11:57;2.72;;;1.00;;
10430;SDS011;5262;59.958;17.726;2023-07-24T07:14:23;1.95;;;1.02;;
10430;SDS011;5262;59.958;17.726;2023-07-24T07:16:49;1.15;;;0.80;;
10430;SDS011;5262;59.958;17.726;2023-07-24T07:19:15;4.13;;;1.20;;
10430;SDS011;5262;59.958;17.726;2023-07-24T07:21:40;2.83;;;1.00;;
10430;SDS011;5262;59.958;17.726;2023-07-24T07:24:06;2.00;;;0.98;;
10430;SDS011;5262;59.958;17.726;2023-07-24T07:26:31;1.95;;;1.30;;
10430;SDS011;5262;59.958;17.726;2023-07-24T07:28:58;1.60;;;1.00;;
10430;SDS011;5262;59.958;17.726;2023-07-24T07:31:24;2.55;;;1.10;;
10430;SDS011;5262;59.958;17.726;2023-07-24T07:33:50;1.17;;;0.90;;
10430;SDS011;5262;59.958;17.726;2023-07-24T07:36:15;0.90;;;0.90;;
10430;SDS011;5262;59.958;17.726;2023-07-24T07:38:42;1.35;;;1.00;;
10430;SDS011;5262;59.958;17.726;2023-07-24T07:41:08;1.42;;;1.08;;
10430;SDS011;5262;59.958;17.726;2023-07-24T07:43:34;1.13;;;1.02;;
10430;SDS011;5262;59.958;17.726;2023-07-24T07:46:01;3.15;;;1.33;;
10430;SDS011;5262;59.958;17.726;2023-07-24T07:48:27;2.30;;;1.20;;
10430;SDS011;5262;59.958;17.726;2023-07-24T07:50:53;2.38;;;1.40;;
10430;SDS011;5262;59.958;17.726;2023-07-24T07:53:19;1.80;;;1.15;;
10430;SDS011;5262;59.958;17.726;2023-07-24T07:55:44;1.38;;;1.00;;
10430;SDS011;5262;59.958;17.726;2023-07-24T07:58:10;1.20;;;1.10;;
10430;SDS011;5262;59.958;17.726;2023-07-24T08:00:35;2.72;;;1.27;;
10430;SDS011;5262;59.958;17.726;2023-07-24T08:03:04;1.65;;;1.00;;
10430;SDS011;5262;59.958;17.726;2023-07-24T08:05:30;1.50;;;1.20;;
10430;SDS011;5262;59.958;17.726;2023-07-24T08:07:57;1.60;;;1.15;;
10430;SDS011;5262;59.958;17.726;2023-07-24T08:10:23;1.10;;;0.90;;
10430;SDS011;5262;59.958;17.726;2023-07-24T08:12:48;1.33;;;1.10;;
10430;SDS011;5262;59.958;17.726;2023-07-24T08:15:14;2.00;;;1.08;;
10430;SDS011;5262;59.958;17.726;2023-07-24T08:17:40;5.10;;;1.33;;
10430;SDS011;5262;59.958;17.726;2023-07-24T08:20:06;2.22;;;1.27;;
10430;SDS011;5262;59.958;17.726;2023-07-24T08:22:32;2.35;;;1.27;;
10430;SDS011;5262;59.958;17.726;2023-07-24T08:24:57;1.85;;;1.20;;
10430;SDS011;5262;59.958;17.726;2023-07-24T08:27:23;2.15;;;1.05;;
10430;SDS011;5262;59.958;17.726;2023-07-24T08:29:52;1.02;;;0.93;;
10430;SDS011;5262;59.958;17.726;2023-07-24T08:32:18;2.25;;;1.10;;
10430;SDS011;5262;59.958;17.726;2023-07-24T08:34:44;1.60;;;1.08;;
10430;SDS011;5262;59.958;17.726;2023-07-24T08:37:10;1.90;;;1.20;;
10430;SDS011;5262;59.958;17.726;2023-07-24T08:39:37;1.75;;;1.00;;
10430;SDS011;5262;59.958;17.726;2023-07-24T08:42:10;1.83;;;1.17;;
10430;SDS011;5262;59.958;17.726;2023-07-24T08:44:36;2.10;;;1.08;;
10430;SDS011;5262;59.958;17.726;2023-07-24T08:47:02;1.00;;;0.90;;
10430;SDS011;5262;59.958;17.726;2023-07-24T08:49:29;1.48;;;1.13;;
10430;SDS011;5262;59.958;17.726;2023-07-24T08:51:55;1.40;;;1.30;;
10430;SDS011;5262;59.958;17.726;2023-07-24T08:54:22;2.10;;;1.30;;
10430;SDS011;5262;59.958;17.726;2023-07-24T08:56:49;1.88;;;1.20;;
10430;SDS011;5262;59.958;17.726;2023-07-24T08:59:17;3.03;;;1.35;;
10430;SDS011;5262;59.958;17.726;2023-07-24T09:01:42;1.35;;;1.00;;
10430;SDS011;5262;59.958;17.726;2023-07-24T09:04:08;2.15;;;1.30;;
10430;SDS011;5262;59.958;17.726;2023-07-24T09:06:34;1.10;;;1.00;;
10430;SDS011;5262;59.958;17.726;2023-07-24T09:09:00;1.80;;;1.23;;
10430;SDS011;5262;59.958;17.726;2023-07-24T09:11:26;2.80;;;1.30;;
10430;SDS011;5262;59.958;17.726;2023-07-24T09:13:52;1.40;;;1.30;;
10430;SDS011;5262;59.958;17.726;2023-07-24T09:16:24;1.52;;;1.40;;
10430;SDS011;5262;59.958;17.726;2023-07-24T09:18:51;2.15;;;1.50;;
10430;SDS011;5262;59.958;17.726;2023-07-24T09:21:30;1.50;;;1.38;;
10430;SDS011;5262;59.958;17.726;2023-07-24T09:23:57;2.28;;;1.30;;
10430;SDS011;5262;59.958;17.726;2023-07-24T09:26:33;3.13;;;1.25;;
10430;SDS011;5262;59.958;17.726;2023-07-24T09:28:59;2.83;;;1.38;;
10430;SDS011;5262;59.958;17.726;2023-07-24T09:31:33;1.63;;;1.25;;
10430;SDS011;5262;59.958;17.726;2023-07-24T09:34:00;1.48;;;1.30;;
10430;SDS011;5262;59.958;17.726;2023-07-24T09:36:26;1.52;;;1.42;;
10430;SDS011;5262;59.958;17.726;2023-07-24T09:39:03;1.58;;;1.40;;
10430;SDS011;5262;59.958;17.726;2023-07-24T09:41:31;1.45;;;1.27;;
10430;SDS011;5262;59.958;17.726;2023-07-24T09:44:00;1.50;;;1.30;;
10430;SDS011;5262;59.958;17.726;2023-07-24T09:46:26;1.40;;;1.30;;
10430;SDS011;5262;59.958;17.726;2023-07-24T09:48:51;1.40;;;1.30;;
10430;SDS011;5262;59.958;17.726;2023-07-24T09:51:17;1.52;;;1.38;;
10430;SDS011;5262;59.958;17.726;2023-07-24T09:53:43;2.10;;;1.30;;
10430;SDS011;5262;59.958;17.726;2023-07-24T09:56:46;2.47;;;1.42;;
10430;SDS011;5262;59.958;17.726;2023-07-24T09:59:12;2.83;;;1.50;;
10430;SDS011;5262;59.958;17.726;2023-07-24T10:01:38;2.75;;;1.55;;
10430;SDS011;5262;59.958;17.726;2023-07-24T10:04:04;1.52;;;1.20;;
10430;SDS011;5262;59.958;17.726;2023-07-24T10:06:31;2.78;;;1.67;;
10430;SDS011;5262;59.958;17.726;2023-07-24T10:08:58;2.70;;;1.40;;
10430;SDS011;5262;59.958;17.726;2023-07-24T10:11:23;3.88;;;1.60;;
10430;SDS011;5262;59.958;17.726;2023-07-24T10:13:51;1.60;;;1.50;;
10430;SDS011;5262;59.958;17.726;2023-07-24T10:16:18;2.97;;;1.80;;
10430;SDS011;5262;59.958;17.726;2023-07-24T10:18:45;1.35;;;1.25;;
10430;SDS011;5262;59.958;17.726;2023-07-24T10:21:11;3.15;;;1.60;;
10430;SDS011;5262;59.958;17.726;2023-07-24T10:23:40;2.58;;;1.40;;
10430;SDS011;5262;59.958;17.726;2023-07-24T10:26:08;2.25;;;1.60;;
10430;SDS011;5262;59.958;17.726;2023-07-24T10:28:34;2.38;;;1.63;;
10430;SDS011;5262;59.958;17.726;2023-07-24T10:31:22;5.05;;;1.60;;
10430;SDS011;5262;59.958;17.726;2023-07-24T10:33:51;1.45;;;1.35;;
10430;SDS011;5262;59.958;17.726;2023-07-24T10:36:18;1.67;;;1.40;;
10430;SDS011;5262;59.958;17.726;2023-07-24T10:38:46;1.92;;;1.58;;
10430;SDS011;5262;59.958;17.726;2023-07-24T10:41:12;2.88;;;2.08;;
10430;SDS011;5262;59.958;17.726;2023-07-24T10:46:06;1.98;;;1.40;;
10430;SDS011;5262;59.958;17.726;2023-07-24T10:48:32;1.70;;;1.60;;
10430;SDS011;5262;59.958;17.726;2023-07-24T10:50:58;2.95;;;1.63;;
10430;SDS011;5262;59.958;17.726;2023-07-24T10:53:30;1.77;;;1.52;;
10430;SDS011;5262;59.958;17.726;2023-07-24T10:55:56;1.83;;;1.60;;
10430;SDS011;5262;59.958;17.726;2023-07-24T10:58:21;2.13;;;1.50;;
10430;SDS011;5262;59.958;17.726;2023-07-24T11:00:50;2.22;;;1.65;;
10430;SDS011;5262;59.958;17.726;2023-07-24T11:03:16;1.92;;;1.73;;
10430;SDS011;5262;59.958;17.726;2023-07-24T11:05:43;1.98;;;1.50;;
10430;SDS011;5262;59.958;17.726;2023-07-24T11:08:11;1.73;;;1.63;;
10430;SDS011;5262;59.958;17.726;2023-07-24T11:10:47;1.55;;;1.45;;
10430;SDS011;5262;59.958;17.726;2023-07-24T11:13:14;1.58;;;1.48;;
10430;SDS011;5262;59.958;17.726;2023-07-24T11:15:44;3.05;;;1.60;;
10430;SDS011;5262;59.958;17.726;2023-07-24T11:18:10;1.92;;;1.40;;
10430;SDS011;5262;59.958;17.726;2023-07-24T11:20:44;1.60;;;1.45;;
10430;SDS011;5262;59.958;17.726;2023-07-24T11:23:11;2.10;;;1.80;;
10430;SDS011;5262;59.958;17.726;2023-07-24T11:25:38;1.40;;;1.30;;
10430;SDS011;5262;59.958;17.726;2023-07-24T11:28:07;2.95;;;1.50;;
10430;SDS011;5262;59.958;17.726;2023-07-24T11:30:35;1.30;;;1.20;;
10430;SDS011;5262;59.958;17.726;2023-07-24T11:33:05;1.85;;;1.50;;
10430;SDS011;5262;59.958;17.726;2023-07-24T11:35:32;2.17;;;1.45;;
10430;SDS011;5262;59.958;17.726;2023-07-24T11:37:58;2.28;;;1.60;;
10430;SDS011;5262;59.958;17.726;2023-07-24T11:40:34;1.70;;;1.60;;
10430;SDS011;5262;59.958;17.726;2023-07-24T11:43:25;1.83;;;1.30;;
10430;SDS011;5262;59.958;17.726;2023-07-24T11:45:51;1.85;;;1.40;;
10430;SDS011;5262;59.958;17.726;2023-07-24T11:48:22;2.38;;;1.50;;
10430;SDS011;5262;59.958;17.726;2023-07-24T11:50:52;1.70;;;1.60;;
10430;SDS011;5262;59.958;17.726;2023-07-24T11:53:23;2.25;;;1.60;;
10430;SDS011;5262;59.958;17.726;2023-07-24T11:56:00;2.33;;;1.45;;
10430;SDS011;5262;59.958;17.726;2023-07-24T11:58:29;1.30;;;1.20;;
10430;SDS011;5262;59.958;17.726;2023-07-24T12:00:55;1.35;;;1.20;;
10430;SDS011;5262;59.958;17.726;2023-07-24T12:03:24;2.13;;;1.40;;
10430;SDS011;5262;59.958;17.726;2023-07-24T12:05:52;1.88;;;1.27;;
10430;SDS011;5262;59.958;17.726;2023-07-24T12:08:23;2.45;;;1.45;;
10430;SDS011;5262;59.958;17.726;2023-07-24T12:10:55;1.90;;;1.60;;
10430;SDS011;5262;59.958;17.726;2023-07-24T12:13:21;1.80;;;1.42;;
10430;SDS011;5262;59.958;17.726;2023-07-24T12:15:47;1.73;;;1.42;;
10430;SDS011;5262;59.958;17.726;2023-07-24T12:18:13;1.90;;;1.70;;
10430;SDS011;5262;59.958;17.726;2023-07-24T12:20:39;1.58;;;1.48;;
10430;SDS011;5262;59.958;17.726;2023-07-24T12:23:05;1.52;;;1.17;;
10430;SDS011;5262;59.958;17.726;2023-07-24T12:25:30;1.63;;;1.45;;
10430;SDS011;5262;59.958;17.726;2023-07-24T12:27:56;2.38;;;1.67;;
10430;SDS011;5262;59.958;17.726;2023-07-24T12:30:22;1.73;;;1.30;;
10430;SDS011;5262;59.958;17.726;2023-07-24T12:32:47;2.40;;;1.42;;
10430;SDS011;5262;59.958;17.726;2023-07-24T12:35:13;1.80;;;1.50;;
10430;SDS011;5262;59.958;17.726;2023-07-24T12:37:40;2.17;;;1.40;;
10430;SDS011;5262;59.958;17.726;2023-07-24T12:40:07;1.77;;;1.50;;
10430;SDS011;5262;59.958;17.726;2023-07-24T12:42:33;1.33;;;1.23;;
10430;SDS011;5262;59.958;17.726;2023-07-24T12:44:59;1.80;;;1.25;;
10430;SDS011;5262;59.958;17.726;2023-07-24T12:47:24;3.40;;;1.48;;
10430;SDS011;5262;59.958;17.726;2023-07-24T12:49:50;3.45;;;1.60;;
10430;SDS011;5262;59.958;17.726;2023-07-24T12:52:18;3.10;;;1.27;;
10430;SDS011;5262;59.958;17.726;2023-07-24T12:54:44;1.60;;;1.40;;
10430;SDS011;5262;59.958;17.726;2023-07-24T12:57:09;2.58;;;1.40;;
10430;SDS011;5262;59.958;17.726;2023-07-24T12:59:35;2.60;;;1.40;;
10430;SDS011;5262;59.958;17.726;2023-07-24T13:02:00;3.40;;;1.52;;
10430;SDS011;5262;59.958;17.726;2023-07-24T13:04:26;1.75;;;1.20;;
10430;SDS011;5262;59.958;17.726;2023-07-24T13:06:52;1.70;;;1.60;;
10430;SDS011;5262;59.958;17.726;2023-07-24T13:09:17;3.80;;;1.05;;
10430;SDS011;5262;59.958;17.726;2023-07-24T13:11:44;2.33;;;1.30;;
10430;SDS011;5262;59.958;17.726;2023-07-24T13:14:11;1.73;;;1.23;;
10430;SDS011;5262;59.958;17.726;2023-07-24T13:16:37;1.20;;;1.10;;
10430;SDS011;5262;59.958;17.726;2023-07-24T13:19:02;2.40;;;1.00;;
10430;SDS011;5262;59.958;17.726;2023-07-24T13:21:28;1.20;;;0.90;;
10430;SDS011;5262;59.958;17.726;2023-07-24T13:23:53;1.20;;;1.10;;
10430;SDS011;5262;59.958;17.726;2023-07-24T13:26:20;2.05;;;1.15;;
10430;SDS011;5262;59.958;17.726;2023-07-24T13:28:46;0.85;;;0.77;;
10430;SDS011;5262;59.958;17.726;2023-07-24T13:31:19;1.10;;;1.00;;
10430;SDS011;5262;59.958;17.726;2023-07-24T13:33:46;1.27;;;1.10;;
10430;SDS011;5262;59.958;17.726;2023-07-24T13:36:11;1.27;;;1.17;;
10430;SDS011;5262;59.958;17.726;2023-07-24T13:38:37;2.25;;;1.17;;
10430;SDS011;5262;59.958;17.726;2023-07-24T13:41:03;1.48;;;1.15;;
10430;SDS011;5262;59.958;17.726;2023-07-24T13:43:33;1.25;;;1.00;;
10430;SDS011;5262;59.958;17.726;2023-07-24T13:45:59;1.10;;;1.00;;
10430;SDS011;5262;59.958;17.726;2023-07-24T13:48:26;1.35;;;1.05;;
10430;SDS011;5262;59.958;17.726;2023-07-24T13:50:52;1.00;;;0.90;;
10430;SDS011;5262;59.958;17.726;2023-07-24T13:53:18;1.30;;;1.00;;
10430;SDS011;5262;59.958;17.726;2023-07-24T13:55:43;1.75;;;0.90;;
10430;SDS011;5262;59.958;17.726;2023-07-24T13:58:09;2.17;;;1.20;;
10430;SDS011;5262;59.958;17.726;2023-07-24T14:00:35;2.15;;;1.10;;
10430;SDS011;5262;59.958;17.726;2023-07-24T14:03:01;1.00;;;0.90;;
10430;SDS011;5262;59.958;17.726;2023-07-24T14:05:26;5.50;;;1.20;;
10430;SDS011;5262;59.958;17.726;2023-07-24T14:07:53;1.55;;;1.10;;
10430;SDS011;5262;59.958;17.726;2023-07-24T14:10:19;2.15;;;1.17;;
10430;SDS011;5262;59.958;17.726;2023-07-24T14:12:44;3.95;;;1.25;;
10430;SDS011;5262;59.958;17.726;2023-07-24T14:15:11;1.80;;;0.90;;
10430;SDS011;5262;59.958;17.726;2023-07-24T14:17:37;2.55;;;1.15;;
10430;SDS011;5262;59.958;17.726;2023-07-24T14:20:03;1.40;;;0.85;;
10430;SDS011;5262;59.958;17.726;2023-07-24T14:22:29;1.40;;;1.02;;
10430;SDS011;5262;59.958;17.726;2023-07-24T14:24:54;1.00;;;0.85;;
10430;SDS011;5262;59.958;17.726;2023-07-24T14:27:20;3.05;;;1.23;;
10430;SDS011;5262;59.958;17.726;2023-07-24T14:29:45;1.15;;;1.05;;
10430;SDS011;5262;59.958;17.726;2023-07-24T14:32:11;3.33;;;1.60;;
10430;SDS011;5262;59.958;17.726;2023-07-24T14:34:37;1.77;;;0.90;;
10430;SDS011;5262;59.958;17.726;2023-07-24T14:37:02;1.17;;;0.93;;
10430;SDS011;5262;59.958;17.726;2023-07-24T14:39:28;2.53;;;1.00;;
10430;SDS011;5262;59.958;17.726;2023-07-24T14:41:54;1.00;;;0.90;;
10430;SDS011;5262;59.958;17.726;2023-07-24T14:44:20;1.27;;;1.00;;
10430;SDS011;5262;59.958;17.726;2023-07-24T14:46:45;2.13;;;1.10;;